sensor_id;sensor_type;location;lat;lon;timestamp;pressure;altitude;pressure_sealevel;temperature;humidity
48244;BME280;34053;51.088;6.572;2022-12-07T00:02:14;101173.91;;;4.87;86.80
48244;BME280;34053;51.088;6.572;2022-12-07T00:04:45;101173.00;;;4.76;86.85
48244;BME280;34053;51.088;6.572;2022-12-07T00:07:15;101166.03;;;4.67;86.74
48244;BME280;34053;51.088;6.572;2022-12-07T00:09:46;101168.66;;;4.71;87.00
48244;BME280;34053;51.088;6.572;2022-12-07T00:12:16;101171.25;;;4.65;87.85
48244;BME280;34053;51.088;6.572;2022-12-07T00:14:47;101166.03;;;4.62;87.31
48244;BME280;34053;51.088;6.572;2022-12-07T00:17:17;101152.16;;;4.59;87.73
48244;BME280;34053;51.088;6.572;2022-12-07T00:19:48;101158.22;;;4.61;87.21
48244;BME280;34053;51.088;6.572;2022-12-07T00:22:18;101162.53;;;4.59;87.22
48244;BME280;34053;51.088;6.572;2022-12-07T00:24:49;101164.28;;;4.60;86.92
48244;BME280;34053;51.088;6.572;2022-12-07T00:27:19;101164.34;;;4.77;86.44
48244;BME280;34053;51.088;6.572;2022-12-07T00:29:50;101149.59;;;4.66;86.50
48244;BME280;34053;51.088;6.572;2022-12-07T00:32:21;101157.38;;;4.63;86.74
48244;BME280;34053;51.088;6.572;2022-12-07T00:34:51;101162.59;;;4.71;86.63
48244;BME280;34053;51.088;6.572;2022-12-07T00:37:22;101165.22;;;4.72;86.28
48244;BME280;34053;51.088;6.572;2022-12-07T00:39:52;101166.09;;;4.78;86.12
48244;BME280;34053;51.088;6.572;2022-12-07T00:42:23;101166.06;;;4.73;86.05
48244;BME280;34053;51.088;6.572;2022-12-07T00:44:53;101163.50;;;4.81;86.28
48244;BME280;34053;51.088;6.572;2022-12-07T00:47:24;101160.88;;;4.70;86.28
48244;BME280;34053;51.088;6.572;2022-12-07T00:49:54;101160.84;;;4.68;86.57
48244;BME280;34053;51.088;6.572;2022-12-07T00:52:25;101162.63;;;4.77;86.18
48244;BME280;34053;51.088;6.572;2022-12-07T00:54:55;101161.78;;;4.78;86.46
48244;BME280;34053;51.088;6.572;2022-12-07T00:57:26;101153.09;;;4.75;86.48
48244;BME280;34053;51.088;6.572;2022-12-07T00:59:56;101158.28;;;4.75;86.63
48244;BME280;34053;51.088;6.572;2022-12-07T01:02:28;101150.47;;;4.73;86.50
48244;BME280;34053;51.088;6.572;2022-12-07T01:04:58;101153.09;;;4.78;86.08
48244;BME280;34053;51.088;6.572;2022-12-07T01:07:29;101152.19;;;4.74;86.00
48244;BME280;34053;51.088;6.572;2022-12-07T01:09:59;101151.38;;;4.83;86.11
48244;BME280;34053;51.088;6.572;2022-12-07T01:12:29;101147.09;;;4.99;86.01
48244;BME280;34053;51.088;6.572;2022-12-07T01:15:00;101151.41;;;4.92;85.90
48244;BME280;34053;51.088;6.572;2022-12-07T01:17:31;101150.59;;;5.04;85.96
48244;BME280;34053;51.088;6.572;2022-12-07T01:20:02;101153.16;;;4.90;85.47
48244;BME280;34053;51.088;6.572;2022-12-07T01:22:40;101151.41;;;4.92;85.98
48244;BME280;34053;51.088;6.572;2022-12-07T01:25:11;101154.81;;;4.79;86.29
48244;BME280;34053;51.088;6.572;2022-12-07T01:27:42;101157.44;;;4.77;85.95
48244;BME280;34053;51.088;6.572;2022-12-07T01:30:13;101166.09;;;4.76;86.02
48244;BME280;34053;51.088;6.572;2022-12-07T01:32:44;101166.97;;;4.78;86.56
48244;BME280;34053;51.088;6.572;2022-12-07T01:35:14;101162.69;;;4.94;85.74
48244;BME280;34053;51.088;6.572;2022-12-07T01:37:45;101163.53;;;4.90;85.64
48244;BME280;34053;51.088;6.572;2022-12-07T01:40:16;101150.50;;;4.84;86.15
48244;BME280;34053;51.088;6.572;2022-12-07T01:42:46;101154.88;;;4.86;86.00
48244;BME280;34053;51.088;6.572;2022-12-07T01:45:40;101151.38;;;4.86;86.59
48244;BME280;34053;51.088;6.572;2022-12-07T01:48:13;101148.75;;;4.80;86.31
48244;BME280;34053;51.088;6.572;2022-12-07T01:50:48;101146.16;;;4.78;86.44
48244;BME280;34053;51.088;6.572;2022-12-07T01:53:20;101140.06;;;4.73;86.45
48244;BME280;34053;51.088;6.572;2022-12-07T01:55:53;101142.66;;;4.68;86.74
48244;BME280;34053;51.088;6.572;2022-12-07T01:58:25;101147.00;;;4.66;86.32
48244;BME280;34053;51.088;6.572;2022-12-07T02:00:56;101146.13;;;4.70;86.95
48244;BME280;34053;51.088;6.572;2022-12-07T02:03:38;101144.41;;;4.66;86.78
48244;BME280;34053;51.088;6.572;2022-12-07T02:06:11;101140.94;;;4.69;86.87
48244;BME280;34053;51.088;6.572;2022-12-07T02:08:43;101139.22;;;4.79;86.08
48244;BME280;34053;51.088;6.572;2022-12-07T02:11:14;101136.66;;;4.82;86.53
48244;BME280;34053;51.088;6.572;2022-12-07T02:13:46;101139.25;;;4.86;86.17
48244;BME280;34053;51.088;6.572;2022-12-07T02:22:42;101134.03;;;4.79;86.29
48244;BME280;34053;51.088;6.572;2022-12-07T02:25:21;101140.94;;;4.77;86.93
48244;BME280;34053;51.088;6.572;2022-12-07T02:28:35;101145.28;;;4.78;86.82
48244;BME280;34053;51.088;6.572;2022-12-07T02:31:18;101144.44;;;4.85;86.27
48244;BME280;34053;51.088;6.572;2022-12-07T02:34:17;101144.47;;;4.86;85.88
48244;BME280;34053;51.088;6.572;2022-12-07T02:36:57;101140.09;;;4.84;86.57
48244;BME280;34053;51.088;6.572;2022-12-07T02:39:53;101148.81;;;4.94;86.28
48244;BME280;34053;51.088;6.572;2022-12-07T02:42:33;101137.53;;;4.87;85.70
48244;BME280;34053;51.088;6.572;2022-12-07T02:45:08;101137.50;;;4.75;86.38
48244;BME280;34053;51.088;6.572;2022-12-07T02:47:40;101134.03;;;4.79;85.67
48244;BME280;34053;51.088;6.572;2022-12-07T02:50:11;101135.75;;;4.75;87.06
48244;BME280;34053;51.088;6.572;2022-12-07T02:52:42;101135.81;;;4.89;85.75
48244;BME280;34053;51.088;6.572;2022-12-07T02:55:15;101128.84;;;4.88;85.68
48244;BME280;34053;51.088;6.572;2022-12-07T03:01:12;101137.50;;;4.82;85.88
48244;BME280;34053;51.088;6.572;2022-12-07T03:03:48;101129.75;;;4.92;85.50
48244;BME280;34053;51.088;6.572;2022-12-07T03:06:31;101137.50;;;4.84;85.59
48244;BME280;34053;51.088;6.572;2022-12-07T03:09:14;101134.06;;;4.88;85.86
48244;BME280;34053;51.088;6.572;2022-12-07T03:11:50;101134.06;;;4.88;85.29
48244;BME280;34053;51.088;6.572;2022-12-07T03:14:30;101134.03;;;4.85;85.89
48244;BME280;34053;51.088;6.572;2022-12-07T03:17:15;101136.66;;;4.89;86.16
48244;BME280;34053;51.088;6.572;2022-12-07T03:19:49;101141.88;;;4.86;85.67
48244;BME280;34053;51.088;6.572;2022-12-07T03:22:23;101136.66;;;4.89;85.44
48244;BME280;34053;51.088;6.572;2022-12-07T03:24:57;101135.78;;;4.86;85.72
48244;BME280;34053;51.088;6.572;2022-12-07T03:27:47;101131.44;;;4.85;86.44
48244;BME280;34053;51.088;6.572;2022-12-07T03:30:22;101130.59;;;4.92;86.08
48244;BME280;34053;51.088;6.572;2022-12-07T03:32:57;101142.72;;;4.93;85.67
48244;BME280;34053;51.088;6.572;2022-12-07T03:35:39;101133.22;;;4.94;85.31
48244;BME280;34053;51.088;6.572;2022-12-07T03:38:19;101134.97;;;4.99;85.04
48244;BME280;34053;51.088;6.572;2022-12-07T03:41:31;101135.78;;;4.92;85.07
48244;BME280;34053;51.088;6.572;2022-12-07T03:44:03;101127.13;;;4.85;85.55
48244;BME280;34053;51.088;6.572;2022-12-07T03:46:50;101134.91;;;4.88;84.87
48244;BME280;34053;51.088;6.572;2022-12-07T03:49:48;101126.28;;;4.97;85.09
48244;BME280;34053;51.088;6.572;2022-12-07T03:55:18;101134.97;;;5.01;84.76
48244;BME280;34053;51.088;6.572;2022-12-07T03:57:54;101133.22;;;5.00;84.69
48244;BME280;34053;51.088;6.572;2022-12-07T04:00:25;101135.84;;;4.98;84.89
48244;BME280;34053;51.088;6.572;2022-12-07T04:02:56;101129.75;;;4.96;84.82
48244;BME280;34053;51.088;6.572;2022-12-07T04:05:28;101134.06;;;5.00;84.33
48244;BME280;34053;51.088;6.572;2022-12-07T04:07:59;101131.50;;;5.03;84.80
48244;BME280;34053;51.088;6.572;2022-12-07T04:10:29;101119.34;;;5.01;84.73
48244;BME280;34053;51.088;6.572;2022-12-07T04:13:00;101125.41;;;5.01;85.17
48244;BME280;34053;51.088;6.572;2022-12-07T04:15:30;101118.47;;;4.94;84.66
48244;BME280;34053;51.088;6.572;2022-12-07T04:18:01;101121.09;;;4.97;84.25
48244;BME280;34053;51.088;6.572;2022-12-07T04:20:32;101123.72;;;5.07;84.60
48244;BME280;34053;51.088;6.572;2022-12-07T04:23:02;101121.97;;;5.06;84.42
48244;BME280;34053;51.088;6.572;2022-12-07T04:25:33;101121.94;;;4.92;83.98
48244;BME280;34053;51.088;6.572;2022-12-07T04:28:03;101130.59;;;4.97;84.14
48244;BME280;34053;51.088;6.572;2022-12-07T04:30:34;101126.28;;;5.00;84.61
48244;BME280;34053;51.088;6.572;2022-12-07T04:33:04;101137.59;;;5.04;83.95
48244;BME280;34053;51.088;6.572;2022-12-07T04:35:35;101127.97;;;4.86;84.49
48244;BME280;34053;51.088;6.572;2022-12-07T04:38:05;101128.84;;;4.88;85.23
48244;BME280;34053;51.088;6.572;2022-12-07T04:40:36;101123.63;;;4.79;84.29
48244;BME280;34053;51.088;6.572;2022-12-07T04:43:07;101119.31;;;4.85;84.17
48244;BME280;34053;51.088;6.572;2022-12-07T04:45:37;101116.72;;;4.85;84.47
48244;BME280;34053;51.088;6.572;2022-12-07T04:48:08;101121.91;;;4.84;84.25
48244;BME280;34053;51.088;6.572;2022-12-07T04:50:38;101123.63;;;4.85;85.10
48244;BME280;34053;51.088;6.572;2022-12-07T04:53:09;101128.00;;;4.87;84.47
48244;BME280;34053;51.088;6.572;2022-12-07T04:55:39;101125.44;;;4.98;84.25
48244;BME280;34053;51.088;6.572;2022-12-07T04:58:10;101124.53;;;4.90;84.02
48244;BME280;34053;51.088;6.572;2022-12-07T05:00:41;101116.75;;;4.90;84.92
48244;BME280;34053;51.088;6.572;2022-12-07T05:03:11;101114.97;;;4.86;84.28
48244;BME280;34053;51.088;6.572;2022-12-07T05:05:42;101111.50;;;4.84;84.28
48244;BME280;34053;51.088;6.572;2022-12-07T05:08:12;101121.91;;;4.84;84.05
48244;BME280;34053;51.088;6.572;2022-12-07T05:10:43;101118.44;;;4.85;84.63
48244;BME280;34053;51.088;6.572;2022-12-07T05:13:14;101120.19;;;4.86;83.58
48244;BME280;34053;51.088;6.572;2022-12-07T05:15:47;101122.75;;;4.81;84.37
48244;BME280;34053;51.088;6.572;2022-12-07T05:18:17;101125.38;;;4.83;84.40
48244;BME280;34053;51.088;6.572;2022-12-07T05:20:48;101126.25;;;4.85;84.40
48244;BME280;34053;51.088;6.572;2022-12-07T05:23:19;101126.22;;;4.80;84.62
48244;BME280;34053;51.088;6.572;2022-12-07T05:25:50;101124.53;;;4.90;83.95
48244;BME280;34053;51.088;6.572;2022-12-07T05:28:20;101129.72;;;4.85;84.22
48244;BME280;34053;51.088;6.572;2022-12-07T05:30:56;101128.81;;;4.80;83.73
48244;BME280;34053;51.088;6.572;2022-12-07T05:33:26;101134.91;;;4.88;83.98
48244;BME280;34053;51.088;6.572;2022-12-07T05:35:57;101129.69;;;4.82;84.52
48244;BME280;34053;51.088;6.572;2022-12-07T05:38:27;101130.59;;;4.83;83.83
48244;BME280;34053;51.088;6.572;2022-12-07T05:41:02;101117.59;;;4.91;83.91
48244;BME280;34053;51.088;6.572;2022-12-07T05:43:33;101123.63;;;4.85;84.31
48244;BME280;34053;51.088;6.572;2022-12-07T05:46:04;101122.81;;;4.87;84.07
48244;BME280;34053;51.088;6.572;2022-12-07T05:48:35;101124.50;;;4.81;83.73
48244;BME280;34053;51.088;6.572;2022-12-07T05:51:06;101109.78;;;4.84;83.35
48244;BME280;34053;51.088;6.572;2022-12-07T05:53:37;101116.66;;;4.67;83.62
48244;BME280;34053;51.088;6.572;2022-12-07T05:56:08;101109.72;;;4.70;84.11
48244;BME280;34053;51.088;6.572;2022-12-07T05:58:38;101114.97;;;4.80;84.20
48244;BME280;34053;51.088;6.572;2022-12-07T06:01:27;101113.25;;;4.85;83.25
48244;BME280;34053;51.088;6.572;2022-12-07T06:03:58;101113.19;;;4.76;84.19
48244;BME280;34053;51.088;6.572;2022-12-07T06:06:29;101115.81;;;4.71;84.47
48244;BME280;34053;51.088;6.572;2022-12-07T06:09:00;101108.00;;;4.68;84.91
48244;BME280;34053;51.088;6.572;2022-12-07T06:11:30;101110.59;;;4.66;85.15
48244;BME280;34053;51.088;6.572;2022-12-07T06:14:19;101122.72;;;4.72;84.78
48244;BME280;34053;51.088;6.572;2022-12-07T06:16:50;101114.97;;;4.73;84.48
48244;BME280;34053;51.088;6.572;2022-12-07T06:19:21;101119.28;;;4.70;83.90
48244;BME280;34053;51.088;6.572;2022-12-07T06:21:53;101114.84;;;4.49;85.51
48244;BME280;34053;51.088;6.572;2022-12-07T06:24:23;101110.53;;;4.54;85.96
48244;BME280;34053;51.088;6.572;2022-12-07T06:26:54;101108.75;;;4.40;86.09
48244;BME280;34053;51.088;6.572;2022-12-07T06:29:25;101111.34;;;4.44;86.39
48244;BME280;34053;51.088;6.572;2022-12-07T06:31:56;101117.47;;;4.55;86.11
48244;BME280;34053;51.088;6.572;2022-12-07T06:34:26;101122.69;;;4.61;84.83
48244;BME280;34053;51.088;6.572;2022-12-07T06:36:57;101125.28;;;4.58;85.12
48244;BME280;34053;51.088;6.572;2022-12-07T06:39:28;101126.09;;;4.49;85.95
48244;BME280;34053;51.088;6.572;2022-12-07T06:42:01;101120.06;;;4.52;85.47
48244;BME280;34053;51.088;6.572;2022-12-07T06:44:32;101125.28;;;4.61;85.62
48244;BME280;34053;51.088;6.572;2022-12-07T06:47:03;101123.53;;;4.52;86.23
48244;BME280;34053;51.088;6.572;2022-12-07T06:49:34;101120.91;;;4.46;86.02
48244;BME280;34053;51.088;6.572;2022-12-07T06:52:05;101127.00;;;4.50;85.92
48244;BME280;34053;51.088;6.572;2022-12-07T06:54:35;101128.75;;;4.57;85.81
48244;BME280;34053;51.088;6.572;2022-12-07T06:57:06;101119.22;;;4.57;85.47
48244;BME280;34053;51.088;6.572;2022-12-07T06:59:36;101121.81;;;4.56;85.01
48244;BME280;34053;51.088;6.572;2022-12-07T07:02:08;101125.25;;;4.52;85.58
48244;BME280;34053;51.088;6.572;2022-12-07T07:04:39;101120.94;;;4.54;85.80
48244;BME280;34053;51.088;6.572;2022-12-07T07:07:10;101118.34;;;4.59;85.21
48244;BME280;34053;51.088;6.572;2022-12-07T07:09:40;101110.56;;;4.60;85.04
48244;BME280;34053;51.088;6.572;2022-12-07T07:12:11;101114.88;;;4.56;85.77
48244;BME280;34053;51.088;6.572;2022-12-07T07:14:42;101117.47;;;4.56;85.75
48244;BME280;34053;51.088;6.572;2022-12-07T07:17:13;101113.13;;;4.48;85.61
48244;BME280;34053;51.088;6.572;2022-12-07T07:19:44;101112.22;;;4.41;85.02
48244;BME280;34053;51.088;6.572;2022-12-07T07:22:14;101116.56;;;4.47;85.18
48244;BME280;34053;51.088;6.572;2022-12-07T07:24:45;101119.22;;;4.57;85.06
48244;BME280;34053;51.088;6.572;2022-12-07T07:27:15;101125.25;;;4.49;84.16
48244;BME280;34053;51.088;6.572;2022-12-07T07:29:46;101128.69;;;4.45;84.49
48244;BME280;34053;51.088;6.572;2022-12-07T07:32:16;101127.81;;;4.44;85.00
48244;BME280;34053;51.088;6.572;2022-12-07T07:34:47;101128.69;;;4.51;84.40
48244;BME280;34053;51.088;6.572;2022-12-07T07:37:18;101132.22;;;4.56;84.24
48244;BME280;34053;51.088;6.572;2022-12-07T07:39:49;101140.03;;;4.61;84.36
48244;BME280;34053;51.088;6.572;2022-12-07T07:42:19;101140.84;;;4.52;84.73
48244;BME280;34053;51.088;6.572;2022-12-07T07:44:50;101139.94;;;4.42;84.48
48244;BME280;34053;51.088;6.572;2022-12-07T07:47:20;101140.81;;;4.38;85.65
48244;BME280;34053;51.088;6.572;2022-12-07T07:49:50;101139.06;;;4.45;85.41
48244;BME280;34053;51.088;6.572;2022-12-07T07:52:21;101136.50;;;4.49;85.25
48244;BME280;34053;51.088;6.572;2022-12-07T07:54:52;101133.03;;;4.44;85.25
48244;BME280;34053;51.088;6.572;2022-12-07T07:57:23;101132.16;;;4.40;85.71
48244;BME280;34053;51.088;6.572;2022-12-07T07:59:53;101141.69;;;4.48;85.71
48244;BME280;34053;51.088;6.572;2022-12-07T08:02:24;101145.19;;;4.53;85.53
48244;BME280;34053;51.088;6.572;2022-12-07T08:04:54;101141.72;;;4.46;85.12
48244;BME280;34053;51.088;6.572;2022-12-07T08:07:27;101140.84;;;4.49;85.14
48244;BME280;34053;51.088;6.572;2022-12-07T08:09:58;101145.13;;;4.42;86.04
48244;BME280;34053;51.088;6.572;2022-12-07T08:12:28;101147.75;;;4.47;85.86
48244;BME280;34053;51.088;6.572;2022-12-07T08:14:59;101146.03;;;4.49;85.84
48244;BME280;34053;51.088;6.572;2022-12-07T08:17:29;101149.50;;;4.46;86.32
48244;BME280;34053;51.088;6.572;2022-12-07T08:20:00;101148.59;;;4.39;86.82
48244;BME280;34053;51.088;6.572;2022-12-07T08:22:30;101148.63;;;4.44;86.18
48244;BME280;34053;51.088;6.572;2022-12-07T08:25:01;101147.72;;;4.42;86.14
48244;BME280;34053;51.088;6.572;2022-12-07T08:27:31;101142.53;;;4.44;86.20
48244;BME280;34053;51.088;6.572;2022-12-07T08:30:02;101146.91;;;4.46;86.28
48244;BME280;34053;51.088;6.572;2022-12-07T08:32:33;101146.84;;;4.38;86.65
48244;BME280;34053;51.088;6.572;2022-12-07T08:35:03;101146.91;;;4.51;86.00
48244;BME280;34053;51.088;6.572;2022-12-07T08:37:34;101154.69;;;4.48;86.12
48244;BME280;34053;51.088;6.572;2022-12-07T08:40:06;101157.28;;;4.41;86.88
48244;BME280;34053;51.088;6.572;2022-12-07T08:42:37;101152.09;;;4.48;86.32
48244;BME280;34053;51.088;6.572;2022-12-07T08:45:14;101153.00;;;4.56;85.89
48244;BME280;34053;51.088;6.572;2022-12-07T08:47:50;101157.34;;;4.60;85.57
48244;BME280;34053;51.088;6.572;2022-12-07T08:50:22;101161.69;;;4.60;85.77
48244;BME280;34053;51.088;6.572;2022-12-07T08:52:57;101153.94;;;4.69;85.65
48244;BME280;34053;51.088;6.572;2022-12-07T08:55:29;101155.66;;;4.73;85.75
48244;BME280;34053;51.088;6.572;2022-12-07T08:58:00;101156.47;;;4.61;85.92
48244;BME280;34053;51.088;6.572;2022-12-07T09:00:32;101156.50;;;4.58;86.30
48244;BME280;34053;51.088;6.572;2022-12-07T09:03:02;101159.94;;;4.60;85.86
48244;BME280;34053;51.088;6.572;2022-12-07T09:05:33;101148.66;;;4.56;86.22
48244;BME280;34053;51.088;6.572;2022-12-07T09:08:05;101159.09;;;4.66;85.71
48244;BME280;34053;51.088;6.572;2022-12-07T09:10:36;101155.66;;;4.68;85.80
48244;BME280;34053;51.088;6.572;2022-12-07T09:13:07;101154.81;;;4.74;85.33
48244;BME280;34053;51.088;6.572;2022-12-07T09:15:38;101155.69;;;4.84;85.44
48244;BME280;34053;51.088;6.572;2022-12-07T09:18:08;101155.69;;;4.75;85.44
48244;BME280;34053;51.088;6.572;2022-12-07T09:20:39;101160.84;;;4.67;85.61
48244;BME280;34053;51.088;6.572;2022-12-07T09:23:09;101160.03;;;4.79;85.57
48244;BME280;34053;51.088;6.572;2022-12-07T09:25:40;101156.50;;;4.66;85.97
48244;BME280;34053;51.088;6.572;2022-12-07T09:28:10;101156.53;;;4.77;85.71
48244;BME280;34053;51.088;6.572;2022-12-07T09:30:48;101159.16;;;4.80;85.34
48244;BME280;34053;51.088;6.572;2022-12-07T09:33:18;101162.63;;;4.79;85.18
48244;BME280;34053;51.088;6.572;2022-12-07T09:35:50;101160.00;;;4.72;85.41
48244;BME280;34053;51.088;6.572;2022-12-07T09:38:21;101160.03;;;4.79;85.61
48244;BME280;34053;51.088;6.572;2022-12-07T09:40:54;101158.34;;;4.90;85.17
48244;BME280;34053;51.088;6.572;2022-12-07T09:43:25;101156.59;;;4.86;85.12
48244;BME280;34053;51.088;6.572;2022-12-07T09:45:56;101160.06;;;4.88;84.93
48244;BME280;34053;51.088;6.572;2022-12-07T09:48:32;101153.97;;;4.84;84.60
48244;BME280;34053;51.088;6.572;2022-12-07T09:51:14;101160.09;;;4.91;84.73
48244;BME280;34053;51.088;6.572;2022-12-07T09:53:46;101154.88;;;4.94;84.69
48244;BME280;34053;51.088;6.572;2022-12-07T09:56:18;101148.78;;;4.91;85.02
48244;BME280;34053;51.088;6.572;2022-12-07T09:58:58;101152.25;;;4.89;84.80
48244;BME280;34053;51.088;6.572;2022-12-07T10:01:33;101147.03;;;4.85;84.97
48244;BME280;34053;51.088;6.572;2022-12-07T10:04:19;101142.72;;;4.87;84.91
48244;BME280;34053;51.088;6.572;2022-12-07T10:06:51;101150.50;;;4.88;84.74
48244;BME280;34053;51.088;6.572;2022-12-07T10:09:22;101141.00;;;4.89;84.50
48244;BME280;34053;51.088;6.572;2022-12-07T10:14:38;101147.94;;;4.96;85.40
48244;BME280;34053;51.088;6.572;2022-12-07T10:20:19;101140.16;;;5.02;85.04
48244;BME280;34053;51.088;6.572;2022-12-07T10:25:28;101132.41;;;5.15;84.53
48244;BME280;34053;51.088;6.572;2022-12-07T10:30:58;101129.78;;;5.16;84.20
48244;BME280;34053;51.088;6.572;2022-12-07T10:38:58;101125.47;;;5.26;84.33
48244;BME280;34053;51.088;6.572;2022-12-07T10:41:30;101125.47;;;5.23;84.23
48244;BME280;34053;51.088;6.572;2022-12-07T10:44:00;101119.41;;;5.32;83.59
48244;BME280;34053;51.088;6.572;2022-12-07T10:46:46;101109.00;;;5.32;83.68
48244;BME280;34053;51.088;6.572;2022-12-07T10:49:28;101104.66;;;5.35;83.72
48244;BME280;34053;51.088;6.572;2022-12-07T11:00:44;101099.47;;;5.49;82.41
48244;BME280;34053;51.088;6.572;2022-12-07T11:03:25;101097.75;;;5.56;83.32
48244;BME280;34053;51.088;6.572;2022-12-07T11:23:18;101069.09;;;5.67;82.29
48244;BME280;34053;51.088;6.572;2022-12-07T11:25:58;101064.75;;;5.66;81.91
48244;BME280;34053;51.088;6.572;2022-12-07T11:28:49;101063.91;;;5.61;81.58
48244;BME280;34053;51.088;6.572;2022-12-07T11:36:49;101061.25;;;5.75;82.27
48244;BME280;34053;51.088;6.572;2022-12-07T11:41:56;101060.41;;;5.70;81.83
48244;BME280;34053;51.088;6.572;2022-12-07T11:44:39;101052.59;;;5.73;80.98
48244;BME280;34053;51.088;6.572;2022-12-07T11:47:30;101047.38;;;5.76;81.30
48244;BME280;34053;51.088;6.572;2022-12-07T11:52:53;101043.00;;;5.89;80.83
48244;BME280;34053;51.088;6.572;2022-12-07T11:55:42;101043.00;;;5.87;81.33
48244;BME280;34053;51.088;6.572;2022-12-07T12:03:51;101038.66;;;5.98;80.64
48244;BME280;34053;51.088;6.572;2022-12-07T12:06:22;101031.69;;;5.94;80.11
48244;BME280;34053;51.088;6.572;2022-12-07T12:09:15;101030.84;;;5.91;80.10
48244;BME280;34053;51.088;6.572;2022-12-07T12:22:58;101028.25;;;6.02;79.97
48244;BME280;34053;51.088;6.572;2022-12-07T12:25:50;101027.38;;;6.06;80.70
48244;BME280;34053;51.088;6.572;2022-12-07T12:28:41;101029.97;;;6.06;80.23
48244;BME280;34053;51.088;6.572;2022-12-07T12:31:29;101026.47;;;6.10;80.34
48244;BME280;34053;51.088;6.572;2022-12-07T12:34:04;101019.50;;;6.20;80.85
48244;BME280;34053;51.088;6.572;2022-12-07T12:39:17;101015.13;;;6.26;80.36
48244;BME280;34053;51.088;6.572;2022-12-07T12:49:39;101001.16;;;6.44;78.78
48244;BME280;34053;51.088;6.572;2022-12-07T12:55:01;101002.84;;;6.45;78.56
48244;BME280;34053;51.088;6.572;2022-12-07T12:57:32;101001.09;;;6.49;78.63
48244;BME280;34053;51.088;6.572;2022-12-07T13:00:19;101002.00;;;6.48;78.94
48244;BME280;34053;51.088;6.572;2022-12-07T13:02:53;100999.38;;;6.50;78.95
48244;BME280;34053;51.088;6.572;2022-12-07T13:05:31;101001.97;;;6.53;78.42
48244;BME280;34053;51.088;6.572;2022-12-07T13:08:03;100984.53;;;6.59;79.66
48244;BME280;34053;51.088;6.572;2022-12-07T13:10:43;100993.25;;;6.55;78.55
48244;BME280;34053;51.088;6.572;2022-12-07T13:16:36;100982.78;;;6.61;78.73
48244;BME280;34053;51.088;6.572;2022-12-07T13:18:45;100984.53;;;6.63;78.96
48244;BME280;34053;51.088;6.572;2022-12-07T13:26:35;100976.72;;;6.58;77.65
48244;BME280;34053;51.088;6.572;2022-12-07T13:29:18;100974.94;;;6.63;78.76
48244;BME280;34053;51.088;6.572;2022-12-07T13:31:52;100970.63;;;6.60;78.22
48244;BME280;34053;51.088;6.572;2022-12-07T13:39:47;100956.75;;;6.54;78.59
48244;BME280;34053;51.088;6.572;2022-12-07T13:42:34;100962.81;;;6.56;78.34
48244;BME280;34053;51.088;6.572;2022-12-07T13:45:23;100955.03;;;6.51;77.98
48244;BME280;34053;51.088;6.572;2022-12-07T13:50:56;100948.09;;;6.50;77.64
48244;BME280;34053;51.088;6.572;2022-12-07T13:53:28;100946.31;;;6.60;78.10
48244;BME280;34053;51.088;6.572;2022-12-07T13:56:01;100940.22;;;6.61;78.57
48244;BME280;34053;51.088;6.572;2022-12-07T13:58:32;100944.59;;;6.51;77.72
48244;BME280;34053;51.088;6.572;2022-12-07T14:01:05;100948.94;;;6.52;78.32
48244;BME280;34053;51.088;6.572;2022-12-07T14:03:36;100943.75;;;6.49;77.68
48244;BME280;34053;51.088;6.572;2022-12-07T14:08:48;100942.81;;;6.63;78.23
48244;BME280;34053;51.088;6.572;2022-12-07T14:11:20;100938.50;;;6.54;78.42
48244;BME280;34053;51.088;6.572;2022-12-07T14:14:03;100940.28;;;6.49;78.32
48244;BME280;34053;51.088;6.572;2022-12-07T14:25:24;100927.28;;;6.44;80.21
48244;BME280;34053;51.088;6.572;2022-12-07T14:27:58;100927.28;;;6.44;78.90
48244;BME280;34053;51.088;6.572;2022-12-07T14:30:33;100927.28;;;6.41;80.17
48244;BME280;34053;51.088;6.572;2022-12-07T14:33:05;100924.69;;;6.42;80.17
48244;BME280;34053;51.088;6.572;2022-12-07T14:35:37;100913.38;;;6.48;79.81
48244;BME280;34053;51.088;6.572;2022-12-07T14:38:10;100917.72;;;6.44;78.19
48244;BME280;34053;51.088;6.572;2022-12-07T14:40:41;100924.00;;;6.14;79.62
48244;BME280;34053;51.088;6.572;2022-12-07T14:43:14;100928.34;;;6.12;78.45
48244;BME280;34053;51.088;6.572;2022-12-07T14:45:45;100916.13;;;6.17;79.01
48244;BME280;34053;51.088;6.572;2022-12-07T14:48:16;100913.53;;;6.23;78.94
48244;BME280;34053;51.088;6.572;2022-12-07T14:50:52;100904.81;;;6.24;78.89
48244;BME280;34053;51.088;6.572;2022-12-07T14:53:29;100905.72;;;6.23;79.02
48244;BME280;34053;51.088;6.572;2022-12-07T14:56:01;100905.69;;;6.25;79.11
48244;BME280;34053;51.088;6.572;2022-12-07T14:58:32;100903.97;;;6.19;78.90
48244;BME280;34053;51.088;6.572;2022-12-07T15:01:02;100901.31;;;6.28;79.27
48244;BME280;34053;51.088;6.572;2022-12-07T15:03:33;100901.31;;;6.25;78.89
48244;BME280;34053;51.088;6.572;2022-12-07T15:06:06;100901.31;;;6.32;79.67
48244;BME280;34053;51.088;6.572;2022-12-07T15:08:36;100908.28;;;6.26;79.28
48244;BME280;34053;51.088;6.572;2022-12-07T15:11:11;100903.94;;;6.27;79.52
48244;BME280;34053;51.088;6.572;2022-12-07T15:13:44;100897.06;;;6.17;79.04
48244;BME280;34053;51.088;6.572;2022-12-07T15:16:38;100895.31;;;6.16;79.26
48244;BME280;34053;51.088;6.572;2022-12-07T15:19:19;100893.63;;;6.11;79.01
48244;BME280;34053;51.088;6.572;2022-12-07T15:21:52;100889.25;;;6.12;78.57
48244;BME280;34053;51.088;6.572;2022-12-07T15:24:23;100891.03;;;6.08;78.77
48244;BME280;34053;51.088;6.572;2022-12-07T15:26:54;100898.78;;;6.16;79.03
48244;BME280;34053;51.088;6.572;2022-12-07T15:29:25;100896.25;;;6.01;78.63
48244;BME280;34053;51.088;6.572;2022-12-07T15:31:55;100896.25;;;5.97;78.86
48244;BME280;34053;51.088;6.572;2022-12-07T15:34:27;100892.78;;;5.98;79.10
48244;BME280;34053;51.088;6.572;2022-12-07T15:36:58;100892.78;;;5.92;79.36
48244;BME280;34053;51.088;6.572;2022-12-07T15:39:29;100888.47;;;5.91;79.60